sensor_id;sensor_type;location;lat;lon;timestamp;P1;durP1;ratioP1;P2;durP2;ratioP2
6551;SDS011;3309;48.708;9.290;2022-07-23T00:00:54;0.20;;;0.20;;
6551;SDS011;3309;48.708;9.290;2022-07-23T00:03:19;0.30;;;0.30;;
6551;SDS011;3309;48.708;9.290;2022-07-23T00:05:45;0.30;;;0.30;;
6551;SDS011;3309;48.708;9.290;2022-07-23T00:08:10;0.20;;;0.20;;
6551;SDS011;3309;48.708;9.290;2022-07-23T00:10:36;0.30;;;0.30;;
6551;SDS011;3309;48.708;9.290;2022-07-23T00:13:02;0.30;;;0.30;;
6551;SDS011;3309;48.708;9.290;2022-07-23T00:15:28;0.20;;;0.20;;
6551;SDS011;3309;48.708;9.290;2022-07-23T00:17:53;0.30;;;0.30;;
6551;SDS011;3309;48.708;9.290;2022-07-23T00:20:19;0.20;;;0.20;;
6551;SDS011;3309;48.708;9.290;2022-07-23T00:22:48;0.30;;;0.30;;
6551;SDS011;3309;48.708;9.290;2022-07-23T00:25:15;0.30;;;0.30;;
6551;SDS011;3309;48.708;9.290;2022-07-23T00:27:41;0.30;;;0.30;;
6551;SDS011;3309;48.708;9.290;2022-07-23T00:30:07;0.20;;;0.20;;
6551;SDS011;3309;48.708;9.290;2022-07-23T00:32:44;0.30;;;0.30;;
6551;SDS011;3309;48.708;9.290;2022-07-23T00:35:14;0.20;;;0.20;;
6551;SDS011;3309;48.708;9.290;2022-07-23T00:37:40;0.30;;;0.30;;
6551;SDS011;3309;48.708;9.290;2022-07-23T00:40:05;0.30;;;0.30;;
6551;SDS011;3309;48.708;9.290;2022-07-23T00:42:32;0.23;;;0.23;;
6551;SDS011;3309;48.708;9.290;2022-07-23T00:44:58;0.23;;;0.23;;
6551;SDS011;3309;48.708;9.290;2022-07-23T00:47:23;0.30;;;0.30;;
6551;SDS011;3309;48.708;9.290;2022-07-23T00:49:49;0.30;;;0.30;;
6551;SDS011;3309;48.708;9.290;2022-07-23T00:52:14;0.30;;;0.30;;
6551;SDS011;3309;48.708;9.290;2022-07-23T00:54:40;0.20;;;0.20;;
6551;SDS011;3309;48.708;9.290;2022-07-23T00:57:06;0.30;;;0.30;;
6551;SDS011;3309;48.708;9.290;2022-07-23T00:59:31;0.30;;;0.30;;
6551;SDS011;3309;48.708;9.290;2022-07-23T01:01:57;0.27;;;0.27;;
6551;SDS011;3309;48.708;9.290;2022-07-23T01:04:22;0.30;;;0.30;;
6551;SDS011;3309;48.708;9.290;2022-07-23T01:06:48;0.20;;;0.20;;
6551;SDS011;3309;48.708;9.290;2022-07-23T01:09:14;0.30;;;0.30;;
6551;SDS011;3309;48.708;9.290;2022-07-23T01:11:40;0.27;;;0.27;;
6551;SDS011;3309;48.708;9.290;2022-07-23T01:14:13;0.30;;;0.30;;
6551;SDS011;3309;48.708;9.290;2022-07-23T01:16:42;0.30;;;0.30;;
6551;SDS011;3309;48.708;9.290;2022-07-23T01:19:09;0.30;;;0.30;;
6551;SDS011;3309;48.708;9.290;2022-07-23T01:21:45;0.30;;;0.30;;
6551;SDS011;3309;48.708;9.290;2022-07-23T01:24:12;0.20;;;0.20;;
6551;SDS011;3309;48.708;9.290;2022-07-23T01:26:39;0.30;;;0.30;;
6551;SDS011;3309;48.708;9.290;2022-07-23T01:29:08;0.30;;;0.30;;
6551;SDS011;3309;48.708;9.290;2022-07-23T01:31:34;0.30;;;0.30;;
6551;SDS011;3309;48.708;9.290;2022-07-23T01:34:00;0.30;;;0.30;;
6551;SDS011;3309;48.708;9.290;2022-07-23T01:36:26;0.30;;;0.30;;
6551;SDS011;3309;48.708;9.290;2022-07-23T01:38:51;0.30;;;0.30;;
6551;SDS011;3309;48.708;9.290;2022-07-23T01:41:17;0.30;;;0.30;;
6551;SDS011;3309;48.708;9.290;2022-07-23T01:43:43;0.20;;;0.20;;
6551;SDS011;3309;48.708;9.290;2022-07-23T01:46:08;0.30;;;0.30;;
6551;SDS011;3309;48.708;9.290;2022-07-23T01:48:34;0.20;;;0.20;;
6551;SDS011;3309;48.708;9.290;2022-07-23T01:50:59;0.27;;;0.27;;
6551;SDS011;3309;48.708;9.290;2022-07-23T01:53:25;0.20;;;0.20;;
6551;SDS011;3309;48.708;9.290;2022-07-23T01:55:50;0.23;;;0.23;;
6551;SDS011;3309;48.708;9.290;2022-07-23T01:58:16;0.20;;;0.20;;
6551;SDS011;3309;48.708;9.290;2022-07-23T02:00:41;0.30;;;0.30;;
6551;SDS011;3309;48.708;9.290;2022-07-23T02:03:07;0.30;;;0.30;;
6551;SDS011;3309;48.708;9.290;2022-07-23T02:05:33;0.20;;;0.20;;
6551;SDS011;3309;48.708;9.290;2022-07-23T02:07:59;0.30;;;0.30;;
6551;SDS011;3309;48.708;9.290;2022-07-23T02:10:25;0.30;;;0.30;;
6551;SDS011;3309;48.708;9.290;2022-07-23T02:12:51;0.33;;;0.33;;
6551;SDS011;3309;48.708;9.290;2022-07-23T02:15:16;0.30;;;0.30;;
6551;SDS011;3309;48.708;9.290;2022-07-23T02:17:42;0.30;;;0.30;;
6551;SDS011;3309;48.708;9.290;2022-07-23T02:20:08;0.20;;;0.20;;
6551;SDS011;3309;48.708;9.290;2022-07-23T02:22:35;0.30;;;0.30;;
6551;SDS011;3309;48.708;9.290;2022-07-23T02:25:01;0.20;;;0.20;;
6551;SDS011;3309;48.708;9.290;2022-07-23T02:27:27;0.30;;;0.30;;
6551;SDS011;3309;48.708;9.290;2022-07-23T02:29:53;0.30;;;0.30;;
6551;SDS011;3309;48.708;9.290;2022-07-23T02:32:18;0.30;;;0.30;;
6551;SDS011;3309;48.708;9.290;2022-07-23T02:34:46;0.30;;;0.30;;
6551;SDS011;3309;48.708;9.290;2022-07-23T02:37:12;0.30;;;0.30;;
6551;SDS011;3309;48.708;9.290;2022-07-23T02:39:37;0.30;;;0.30;;
6551;SDS011;3309;48.708;9.290;2022-07-23T02:42:03;0.20;;;0.20;;
6551;SDS011;3309;48.708;9.290;2022-07-23T02:44:29;0.20;;;0.20;;
6551;SDS011;3309;48.708;9.290;2022-07-23T02:46:54;0.30;;;0.30;;
6551;SDS011;3309;48.708;9.290;2022-07-23T02:49:20;0.27;;;0.27;;
6551;SDS011;3309;48.708;9.290;2022-07-23T02:51:45;0.27;;;0.27;;
6551;SDS011;3309;48.708;9.290;2022-07-23T02:54:11;0.20;;;0.20;;
6551;SDS011;3309;48.708;9.290;2022-07-23T02:56:36;0.30;;;0.30;;
6551;SDS011;3309;48.708;9.290;2022-07-23T02:59:02;0.30;;;0.30;;
6551;SDS011;3309;48.708;9.290;2022-07-23T03:01:27;0.30;;;0.30;;
6551;SDS011;3309;48.708;9.290;2022-07-23T03:03:53;0.23;;;0.23;;
6551;SDS011;3309;48.708;9.290;2022-07-23T03:06:18;0.20;;;0.20;;
6551;SDS011;3309;48.708;9.290;2022-07-23T03:08:44;0.30;;;0.30;;
6551;SDS011;3309;48.708;9.290;2022-07-23T03:11:09;0.30;;;0.30;;
6551;SDS011;3309;48.708;9.290;2022-07-23T03:13:38;0.30;;;0.30;;
6551;SDS011;3309;48.708;9.290;2022-07-23T03:16:04;0.30;;;0.30;;
6551;SDS011;3309;48.708;9.290;2022-07-23T03:18:30;0.30;;;0.30;;
6551;SDS011;3309;48.708;9.290;2022-07-23T03:20:55;0.20;;;0.20;;
6551;SDS011;3309;48.708;9.290;2022-07-23T03:23:21;0.20;;;0.20;;
6551;SDS011;3309;48.708;9.290;2022-07-23T03:25:47;0.20;;;0.20;;
6551;SDS011;3309;48.708;9.290;2022-07-23T03:28:13;0.30;;;0.30;;
6551;SDS011;3309;48.708;9.290;2022-07-23T03:30:40;0.30;;;0.30;;
6551;SDS011;3309;48.708;9.290;2022-07-23T03:33:07;0.30;;;0.30;;
6551;SDS011;3309;48.708;9.290;2022-07-23T03:35:32;0.30;;;0.30;;
6551;SDS011;3309;48.708;9.290;2022-07-23T03:37:58;0.30;;;0.30;;
6551;SDS011;3309;48.708;9.290;2022-07-23T03:40:23;0.30;;;0.30;;
6551;SDS011;3309;48.708;9.290;2022-07-23T03:42:49;0.30;;;0.30;;
6551;SDS011;3309;48.708;9.290;2022-07-23T03:45:14;0.20;;;0.20;;
6551;SDS011;3309;48.708;9.290;2022-07-23T03:47:40;0.30;;;0.30;;
6551;SDS011;3309;48.708;9.290;2022-07-23T03:50:06;0.20;;;0.20;;
6551;SDS011;3309;48.708;9.290;2022-07-23T03:52:32;0.30;;;0.30;;
6551;SDS011;3309;48.708;9.290;2022-07-23T03:54:58;0.20;;;0.20;;
6551;SDS011;3309;48.708;9.290;2022-07-23T03:57:23;0.30;;;0.30;;
6551;SDS011;3309;48.708;9.290;2022-07-23T03:59:49;0.30;;;0.30;;
6551;SDS011;3309;48.708;9.290;2022-07-23T04:02:14;0.20;;;0.20;;
6551;SDS011;3309;48.708;9.290;2022-07-23T04:04:40;0.30;;;0.30;;
6551;SDS011;3309;48.708;9.290;2022-07-23T04:07:05;0.30;;;0.30;;
6551;SDS011;3309;48.708;9.290;2022-07-23T04:09:32;0.20;;;0.20;;
6551;SDS011;3309;48.708;9.290;2022-07-23T04:11:58;0.30;;;0.30;;
6551;SDS011;3309;48.708;9.290;2022-07-23T04:14:24;0.30;;;0.30;;
6551;SDS011;3309;48.708;9.290;2022-07-23T04:16:50;0.30;;;0.30;;
6551;SDS011;3309;48.708;9.290;2022-07-23T04:19:16;0.30;;;0.30;;
6551;SDS011;3309;48.708;9.290;2022-07-23T04:21:41;0.30;;;0.30;;
6551;SDS011;3309;48.708;9.290;2022-07-23T04:24:07;0.30;;;0.30;;
6551;SDS011;3309;48.708;9.290;2022-07-23T04:26:32;0.30;;;0.30;;
6551;SDS011;3309;48.708;9.290;2022-07-23T04:28:58;0.30;;;0.30;;
6551;SDS011;3309;48.708;9.290;2022-07-23T04:31:23;0.33;;;0.33;;
6551;SDS011;3309;48.708;9.290;2022-07-23T04:33:49;0.30;;;0.30;;
6551;SDS011;3309;48.708;9.290;2022-07-23T04:36:14;0.30;;;0.30;;
6551;SDS011;3309;48.708;9.290;2022-07-23T04:38:40;0.30;;;0.30;;
6551;SDS011;3309;48.708;9.290;2022-07-23T04:41:05;0.20;;;0.20;;
6551;SDS011;3309;48.708;9.290;2022-07-23T04:43:31;0.30;;;0.30;;
6551;SDS011;3309;48.708;9.290;2022-07-23T04:45:57;0.20;;;0.20;;
6551;SDS011;3309;48.708;9.290;2022-07-23T04:48:22;0.20;;;0.20;;
6551;SDS011;3309;48.708;9.290;2022-07-23T04:50:48;0.30;;;0.30;;
6551;SDS011;3309;48.708;9.290;2022-07-23T04:53:13;0.20;;;0.20;;
6551;SDS011;3309;48.708;9.290;2022-07-23T04:55:39;0.30;;;0.30;;
6551;SDS011;3309;48.708;9.290;2022-07-23T04:58:05;0.27;;;0.27;;
6551;SDS011;3309;48.708;9.290;2022-07-23T05:00:30;0.30;;;0.30;;
6551;SDS011;3309;48.708;9.290;2022-07-23T05:02:56;0.30;;;0.30;;
6551;SDS011;3309;48.708;9.290;2022-07-23T05:05:21;0.30;;;0.30;;
6551;SDS011;3309;48.708;9.290;2022-07-23T05:07:47;0.30;;;0.30;;
6551;SDS011;3309;48.708;9.290;2022-07-23T05:10:12;0.30;;;0.30;;
6551;SDS011;3309;48.708;9.290;2022-07-23T05:12:38;0.20;;;0.20;;
6551;SDS011;3309;48.708;9.290;2022-07-23T05:15:03;0.33;;;0.33;;
6551;SDS011;3309;48.708;9.290;2022-07-23T05:17:29;0.20;;;0.20;;
6551;SDS011;3309;48.708;9.290;2022-07-23T05:19:55;0.23;;;0.23;;
6551;SDS011;3309;48.708;9.290;2022-07-23T05:22:20;0.30;;;0.30;;
6551;SDS011;3309;48.708;9.290;2022-07-23T05:24:46;0.30;;;0.30;;
6551;SDS011;3309;48.708;9.290;2022-07-23T05:27:11;0.30;;;0.30;;
6551;SDS011;3309;48.708;9.290;2022-07-23T05:29:37;0.30;;;0.30;;
6551;SDS011;3309;48.708;9.290;2022-07-23T05:32:02;0.30;;;0.30;;
6551;SDS011;3309;48.708;9.290;2022-07-23T05:34:28;0.20;;;0.20;;
6551;SDS011;3309;48.708;9.290;2022-07-23T05:36:54;0.20;;;0.20;;
6551;SDS011;3309;48.708;9.290;2022-07-23T05:39:19;0.23;;;0.23;;
6551;SDS011;3309;48.708;9.290;2022-07-23T05:41:45;0.30;;;0.30;;
6551;SDS011;3309;48.708;9.290;2022-07-23T05:44:10;0.30;;;0.30;;
6551;SDS011;3309;48.708;9.290;2022-07-23T05:46:36;0.20;;;0.20;;
6551;SDS011;3309;48.708;9.290;2022-07-23T05:49:01;0.30;;;0.30;;
6551;SDS011;3309;48.708;9.290;2022-07-23T05:51:27;0.30;;;0.30;;
6551;SDS011;3309;48.708;9.290;2022-07-23T05:53:52;0.20;;;0.20;;
6551;SDS011;3309;48.708;9.290;2022-07-23T05:56:18;0.20;;;0.20;;
6551;SDS011;3309;48.708;9.290;2022-07-23T05:58:44;0.30;;;0.30;;
6551;SDS011;3309;48.708;9.290;2022-07-23T06:01:10;0.30;;;0.30;;
6551;SDS011;3309;48.708;9.290;2022-07-23T06:03:36;0.30;;;0.30;;
6551;SDS011;3309;48.708;9.290;2022-07-23T06:06:03;0.30;;;0.30;;
6551;SDS011;3309;48.708;9.290;2022-07-23T06:08:29;0.30;;;0.30;;
6551;SDS011;3309;48.708;9.290;2022-07-23T06:10:54;0.27;;;0.27;;
6551;SDS011;3309;48.708;9.290;2022-07-23T06:13:20;0.30;;;0.30;;
6551;SDS011;3309;48.708;9.290;2022-07-23T06:15:46;0.23;;;0.23;;
6551;SDS011;3309;48.708;9.290;2022-07-23T06:18:12;0.20;;;0.20;;
6551;SDS011;3309;48.708;9.290;2022-07-23T06:20:37;0.30;;;0.30;;
6551;SDS011;3309;48.708;9.290;2022-07-23T06:23:03;0.20;;;0.20;;
6551;SDS011;3309;48.708;9.290;2022-07-23T06:25:29;0.30;;;0.30;;
6551;SDS011;3309;48.708;9.290;2022-07-23T06:27:55;0.20;;;0.20;;
6551;SDS011;3309;48.708;9.290;2022-07-23T06:30:20;0.30;;;0.30;;
6551;SDS011;3309;48.708;9.290;2022-07-23T06:32:46;0.30;;;0.30;;
6551;SDS011;3309;48.708;9.290;2022-07-23T06:35:12;0.20;;;0.20;;
6551;SDS011;3309;48.708;9.290;2022-07-23T06:37:38;0.30;;;0.30;;
6551;SDS011;3309;48.708;9.290;2022-07-23T06:40:03;0.20;;;0.20;;
6551;SDS011;3309;48.708;9.290;2022-07-23T06:42:30;0.20;;;0.20;;
6551;SDS011;3309;48.708;9.290;2022-07-23T06:44:55;0.30;;;0.30;;
6551;SDS011;3309;48.708;9.290;2022-07-23T06:47:21;0.30;;;0.30;;
6551;SDS011;3309;48.708;9.290;2022-07-23T06:49:46;0.30;;;0.30;;
6551;SDS011;3309;48.708;9.290;2022-07-23T06:52:12;0.20;;;0.20;;
6551;SDS011;3309;48.708;9.290;2022-07-23T06:54:37;0.30;;;0.30;;
6551;SDS011;3309;48.708;9.290;2022-07-23T06:57:03;0.30;;;0.30;;
6551;SDS011;3309;48.708;9.290;2022-07-23T06:59:28;0.30;;;0.30;;
6551;SDS011;3309;48.708;9.290;2022-07-23T07:01:54;0.20;;;0.20;;
6551;SDS011;3309;48.708;9.290;2022-07-23T07:04:20;0.27;;;0.27;;
6551;SDS011;3309;48.708;9.290;2022-07-23T07:06:45;0.30;;;0.30;;
6551;SDS011;3309;48.708;9.290;2022-07-23T07:09:11;0.23;;;0.23;;
6551;SDS011;3309;48.708;9.290;2022-07-23T07:11:36;0.27;;;0.27;;
6551;SDS011;3309;48.708;9.290;2022-07-23T07:14:02;0.20;;;0.20;;
6551;SDS011;3309;48.708;9.290;2022-07-23T07:16:29;0.27;;;0.27;;
6551;SDS011;3309;48.708;9.290;2022-07-23T07:18:54;0.30;;;0.30;;
6551;SDS011;3309;48.708;9.290;2022-07-23T07:21:20;0.27;;;0.27;;
6551;SDS011;3309;48.708;9.290;2022-07-23T07:23:45;0.30;;;0.30;;
6551;SDS011;3309;48.708;9.290;2022-07-23T07:26:11;0.20;;;0.20;;
6551;SDS011;3309;48.708;9.290;2022-07-23T07:28:36;0.30;;;0.30;;
6551;SDS011;3309;48.708;9.290;2022-07-23T07:31:02;0.30;;;0.30;;
6551;SDS011;3309;48.708;9.290;2022-07-23T07:33:28;0.30;;;0.30;;
6551;SDS011;3309;48.708;9.290;2022-07-23T07:35:54;0.40;;;0.40;;
6551;SDS011;3309;48.708;9.290;2022-07-23T07:38:19;0.30;;;0.30;;
6551;SDS011;3309;48.708;9.290;2022-07-23T07:40:45;0.30;;;0.30;;
6551;SDS011;3309;48.708;9.290;2022-07-23T07:43:10;0.30;;;0.30;;
6551;SDS011;3309;48.708;9.290;2022-07-23T07:45:36;0.30;;;0.30;;
6551;SDS011;3309;48.708;9.290;2022-07-23T07:48:02;0.40;;;0.40;;
6551;SDS011;3309;48.708;9.290;2022-07-23T07:50:27;0.27;;;0.27;;
6551;SDS011;3309;48.708;9.290;2022-07-23T07:52:53;0.40;;;0.40;;
6551;SDS011;3309;48.708;9.290;2022-07-23T07:55:19;0.30;;;0.30;;
6551;SDS011;3309;48.708;9.290;2022-07-23T07:57:44;0.20;;;0.20;;
6551;SDS011;3309;48.708;9.290;2022-07-23T08:00:10;0.40;;;0.40;;
6551;SDS011;3309;48.708;9.290;2022-07-23T08:02:40;0.30;;;0.30;;
6551;SDS011;3309;48.708;9.290;2022-07-23T08:05:06;0.40;;;0.40;;
6551;SDS011;3309;48.708;9.290;2022-07-23T08:07:31;0.40;;;0.40;;
6551;SDS011;3309;48.708;9.290;2022-07-23T08:09:57;0.30;;;0.30;;
6551;SDS011;3309;48.708;9.290;2022-07-23T08:12:22;0.30;;;0.30;;
6551;SDS011;3309;48.708;9.290;2022-07-23T08:14:48;0.40;;;0.40;;
6551;SDS011;3309;48.708;9.290;2022-07-23T08:17:14;0.43;;;0.43;;
6551;SDS011;3309;48.708;9.290;2022-07-23T08:19:39;0.20;;;0.20;;
6551;SDS011;3309;48.708;9.290;2022-07-23T08:22:05;0.37;;;0.37;;
6551;SDS011;3309;48.708;9.290;2022-07-23T08:24:30;0.30;;;0.30;;
6551;SDS011;3309;48.708;9.290;2022-07-23T08:26:56;0.30;;;0.30;;
6551;SDS011;3309;48.708;9.290;2022-07-23T08:29:21;0.40;;;0.40;;
6551;SDS011;3309;48.708;9.290;2022-07-23T08:31:47;0.40;;;0.40;;
6551;SDS011;3309;48.708;9.290;2022-07-23T08:34:12;0.50;;;0.50;;
6551;SDS011;3309;48.708;9.290;2022-07-23T08:36:38;0.30;;;0.30;;
6551;SDS011;3309;48.708;9.290;2022-07-23T08:39:03;0.50;;;0.50;;
6551;SDS011;3309;48.708;9.290;2022-07-23T08:41:29;0.40;;;0.40;;
6551;SDS011;3309;48.708;9.290;2022-07-23T08:43:54;0.50;;;0.50;;
6551;SDS011;3309;48.708;9.290;2022-07-23T08:46:20;0.40;;;0.40;;
6551;SDS011;3309;48.708;9.290;2022-07-23T08:48:48;0.60;;;0.60;;
6551;SDS011;3309;48.708;9.290;2022-07-23T08:51:15;0.40;;;0.40;;
6551;SDS011;3309;48.708;9.290;2022-07-23T08:53:41;0.40;;;0.40;;
6551;SDS011;3309;48.708;9.290;2022-07-23T08:56:09;0.30;;;0.30;;
6551;SDS011;3309;48.708;9.290;2022-07-23T08:58:35;0.50;;;0.50;;
6551;SDS011;3309;48.708;9.290;2022-07-23T09:01:01;0.43;;;0.43;;
6551;SDS011;3309;48.708;9.290;2022-07-23T09:03:27;0.40;;;0.40;;
6551;SDS011;3309;48.708;9.290;2022-07-23T09:05:54;0.40;;;0.40;;
6551;SDS011;3309;48.708;9.290;2022-07-23T09:08:22;0.40;;;0.40;;
6551;SDS011;3309;48.708;9.290;2022-07-23T09:10:53;0.33;;;0.33;;
6551;SDS011;3309;48.708;9.290;2022-07-23T09:13:32;0.60;;;0.60;;
6551;SDS011;3309;48.708;9.290;2022-07-23T09:16:09;0.47;;;0.47;;
6551;SDS011;3309;48.708;9.290;2022-07-23T09:18:38;0.53;;;0.53;;
6551;SDS011;3309;48.708;9.290;2022-07-23T09:21:09;0.40;;;0.40;;
6551;SDS011;3309;48.708;9.290;2022-07-23T09:24:00;0.57;;;0.57;;
6551;SDS011;3309;48.708;9.290;2022-07-23T09:26:28;0.53;;;0.53;;
6551;SDS011;3309;48.708;9.290;2022-07-23T09:28:56;0.50;;;0.50;;
6551;SDS011;3309;48.708;9.290;2022-07-23T09:31:24;0.40;;;0.40;;
6551;SDS011;3309;48.708;9.290;2022-07-23T09:33:50;0.60;;;0.60;;
6551;SDS011;3309;48.708;9.290;2022-07-23T09:36:30;0.40;;;0.40;;
6551;SDS011;3309;48.708;9.290;2022-07-23T09:38:56;0.50;;;0.50;;
6551;SDS011;3309;48.708;9.290;2022-07-23T09:41:21;0.53;;;0.53;;
6551;SDS011;3309;48.708;9.290;2022-07-23T09:43:50;0.57;;;0.57;;
6551;SDS011;3309;48.708;9.290;2022-07-23T09:46:27;0.60;;;0.60;;
6551;SDS011;3309;48.708;9.290;2022-07-23T09:48:53;0.60;;;0.60;;
6551;SDS011;3309;48.708;9.290;2022-07-23T09:51:23;0.57;;;0.57;;
6551;SDS011;3309;48.708;9.290;2022-07-23T09:54:01;0.50;;;0.50;;
6551;SDS011;3309;48.708;9.290;2022-07-23T09:56:27;0.50;;;0.50;;
6551;SDS011;3309;48.708;9.290;2022-07-23T09:58:53;0.60;;;0.60;;
6551;SDS011;3309;48.708;9.290;2022-07-23T10:04:45;0.52;;;0.52;;
6551;SDS011;3309;48.708;9.290;2022-07-23T10:07:12;0.50;;;0.50;;
6551;SDS011;3309;48.708;9.290;2022-07-23T10:09:41;0.60;;;0.60;;
6551;SDS011;3309;48.708;9.290;2022-07-23T10:12:11;0.50;;;0.50;;
6551;SDS011;3309;48.708;9.290;2022-07-23T10:14:57;0.60;;;0.60;;
6551;SDS011;3309;48.708;9.290;2022-07-23T10:17:23;0.50;;;0.50;;
6551;SDS011;3309;48.708;9.290;2022-07-23T10:19:49;0.50;;;0.50;;
6551;SDS011;3309;48.708;9.290;2022-07-23T10:22:18;0.60;;;0.60;;
6551;SDS011;3309;48.708;9.290;2022-07-23T10:25:04;0.57;;;0.57;;
6551;SDS011;3309;48.708;9.290;2022-07-23T10:33:40;0.55;;;0.55;;
6551;SDS011;3309;48.708;9.290;2022-07-23T10:38:58;0.63;;;0.63;;
6551;SDS011;3309;48.708;9.290;2022-07-23T10:41:31;0.50;;;0.50;;
6551;SDS011;3309;48.708;9.290;2022-07-23T10:46:53;0.40;;;0.40;;
6551;SDS011;3309;48.708;9.290;2022-07-23T10:49:35;0.50;;;0.50;;
6551;SDS011;3309;48.708;9.290;2022-07-23T10:54:38;0.60;;;0.60;;
6551;SDS011;3309;48.708;9.290;2022-07-23T10:57:05;0.60;;;0.60;;
6551;SDS011;3309;48.708;9.290;2022-07-23T11:02:43;0.50;;;0.50;;
6551;SDS011;3309;48.708;9.290;2022-07-23T11:05:12;0.43;;;0.43;;
6551;SDS011;3309;48.708;9.290;2022-07-23T11:10:33;0.50;;;0.50;;
6551;SDS011;3309;48.708;9.290;2022-07-23T11:31:53;0.40;;;0.40;;
6551;SDS011;3309;48.708;9.290;2022-07-23T11:34:36;0.40;;;0.40;;
6551;SDS011;3309;48.708;9.290;2022-07-23T11:37:11;0.57;;;0.57;;
6551;SDS011;3309;48.708;9.290;2022-07-23T11:39:55;0.57;;;0.57;;
6551;SDS011;3309;48.708;9.290;2022-07-23T11:42:22;0.50;;;0.50;;
6551;SDS011;3309;48.708;9.290;2022-07-23T11:44:49;0.45;;;0.45;;
6551;SDS011;3309;48.708;9.290;2022-07-23T11:47:15;0.50;;;0.50;;
6551;SDS011;3309;48.708;9.290;2022-07-23T11:49:53;0.50;;;0.50;;
6551;SDS011;3309;48.708;9.290;2022-07-23T11:52:19;0.70;;;0.70;;
6551;SDS011;3309;48.708;9.290;2022-07-23T11:57:13;0.50;;;0.50;;
6551;SDS011;3309;48.708;9.290;2022-07-23T11:59:39;0.40;;;0.40;;
6551;SDS011;3309;48.708;9.290;2022-07-23T12:02:05;0.50;;;0.50;;
6551;SDS011;3309;48.708;9.290;2022-07-23T12:04:38;0.60;;;0.60;;
6551;SDS011;3309;48.708;9.290;2022-07-23T12:07:25;0.50;;;0.50;;
6551;SDS011;3309;48.708;9.290;2022-07-23T12:09:52;0.40;;;0.40;;
6551;SDS011;3309;48.708;9.290;2022-07-23T12:12:18;0.40;;;0.40;;
6551;SDS011;3309;48.708;9.290;2022-07-23T12:14:48;0.60;;;0.60;;
6551;SDS011;3309;48.708;9.290;2022-07-23T12:17:18;0.38;;;0.38;;
6551;SDS011;3309;48.708;9.290;2022-07-23T12:19:44;0.40;;;0.40;;
6551;SDS011;3309;48.708;9.290;2022-07-23T12:22:11;0.40;;;0.40;;
6551;SDS011;3309;48.708;9.290;2022-07-23T12:24:52;0.60;;;0.60;;
6551;SDS011;3309;48.708;9.290;2022-07-23T12:27:20;0.40;;;0.40;;
6551;SDS011;3309;48.708;9.290;2022-07-23T12:29:47;0.50;;;0.50;;
6551;SDS011;3309;48.708;9.290;2022-07-23T12:32:20;0.50;;;0.50;;
6551;SDS011;3309;48.708;9.290;2022-07-23T12:34:51;0.40;;;0.40;;
6551;SDS011;3309;48.708;9.290;2022-07-23T12:37:40;0.50;;;0.50;;
6551;SDS011;3309;48.708;9.290;2022-07-23T12:42:58;0.60;;;0.60;;
6551;SDS011;3309;48.708;9.290;2022-07-23T12:45:28;0.50;;;0.50;;
6551;SDS011;3309;48.708;9.290;2022-07-23T12:48:07;0.47;;;0.47;;
6551;SDS011;3309;48.708;9.290;2022-07-23T12:53:13;0.50;;;0.50;;
6551;SDS011;3309;48.708;9.290;2022-07-23T12:55:41;0.57;;;0.57;;
6551;SDS011;3309;48.708;9.290;2022-07-23T12:58:17;0.47;;;0.47;;
6551;SDS011;3309;48.708;9.290;2022-07-23T13:00:55;0.60;;;0.60;;
6551;SDS011;3309;48.708;9.290;2022-07-23T13:03:29;0.50;;;0.50;;
6551;SDS011;3309;48.708;9.290;2022-07-23T13:06:03;0.63;;;0.63;;
6551;SDS011;3309;48.708;9.290;2022-07-23T13:08:31;0.60;;;0.60;;
6551;SDS011;3309;48.708;9.290;2022-07-23T13:10:58;0.47;;;0.47;;
6551;SDS011;3309;48.708;9.290;2022-07-23T13:13:25;0.50;;;0.50;;
6551;SDS011;3309;48.708;9.290;2022-07-23T13:15:52;0.60;;;0.60;;
6551;SDS011;3309;48.708;9.290;2022-07-23T13:18:19;0.47;;;0.47;;
6551;SDS011;3309;48.708;9.290;2022-07-23T13:20:46;0.50;;;0.50;;
6551;SDS011;3309;48.708;9.290;2022-07-23T13:23:12;0.50;;;0.50;;
6551;SDS011;3309;48.708;9.290;2022-07-23T13:25:39;0.43;;;0.43;;
6551;SDS011;3309;48.708;9.290;2022-07-23T13:28:05;0.30;;;0.30;;
6551;SDS011;3309;48.708;9.290;2022-07-23T13:30:31;0.60;;;0.60;;
6551;SDS011;3309;48.708;9.290;2022-07-23T13:32:56;0.40;;;0.40;;
6551;SDS011;3309;48.708;9.290;2022-07-23T13:35:22;0.50;;;0.50;;
6551;SDS011;3309;48.708;9.290;2022-07-23T13:37:48;0.47;;;0.47;;
6551;SDS011;3309;48.708;9.290;2022-07-23T13:40:13;0.60;;;0.60;;
6551;SDS011;3309;48.708;9.290;2022-07-23T13:42:39;0.50;;;0.50;;
6551;SDS011;3309;48.708;9.290;2022-07-23T13:45:05;0.43;;;0.43;;
6551;SDS011;3309;48.708;9.290;2022-07-23T13:47:31;0.50;;;0.50;;
6551;SDS011;3309;48.708;9.290;2022-07-23T13:49:57;0.50;;;0.50;;
6551;SDS011;3309;48.708;9.290;2022-07-23T13:52:22;0.60;;;0.60;;
6551;SDS011;3309;48.708;9.290;2022-07-23T13:54:48;0.57;;;0.57;;
6551;SDS011;3309;48.708;9.290;2022-07-23T13:57:14;0.60;;;0.60;;
6551;SDS011;3309;48.708;9.290;2022-07-23T13:59:40;0.50;;;0.50;;
6551;SDS011;3309;48.708;9.290;2022-07-23T14:02:06;0.50;;;0.50;;
6551;SDS011;3309;48.708;9.290;2022-07-23T14:04:32;0.50;;;0.50;;
6551;SDS011;3309;48.708;9.290;2022-07-23T14:06:58;0.40;;;0.40;;
6551;SDS011;3309;48.708;9.290;2022-07-23T14:09:24;0.40;;;0.40;;
6551;SDS011;3309;48.708;9.290;2022-07-23T14:11:50;0.30;;;0.30;;
6551;SDS011;3309;48.708;9.290;2022-07-23T14:14:16;0.30;;;0.30;;
6551;SDS011;3309;48.708;9.290;2022-07-23T14:16:42;0.28;;;0.28;;
6551;SDS011;3309;48.708;9.290;2022-07-23T14:19:08;0.40;;;0.40;;
6551;SDS011;3309;48.708;9.290;2022-07-23T14:21:34;0.50;;;0.50;;
6551;SDS011;3309;48.708;9.290;2022-07-23T14:24:00;0.40;;;0.40;;
6551;SDS011;3309;48.708;9.290;2022-07-23T14:26:25;0.40;;;0.40;;
6551;SDS011;3309;48.708;9.290;2022-07-23T14:28:52;0.55;;;0.55;;
6551;SDS011;3309;48.708;9.290;2022-07-23T14:31:17;0.45;;;0.45;;
6551;SDS011;3309;48.708;9.290;2022-07-23T14:33:43;0.40;;;0.40;;
6551;SDS011;3309;48.708;9.290;2022-07-23T14:36:08;0.57;;;0.57;;
6551;SDS011;3309;48.708;9.290;2022-07-23T14:38:34;0.57;;;0.57;;
6551;SDS011;3309;48.708;9.290;2022-07-23T14:40:59;0.52;;;0.52;;
6551;SDS011;3309;48.708;9.290;2022-07-23T14:43:25;0.60;;;0.60;;
6551;SDS011;3309;48.708;9.290;2022-07-23T14:45:50;0.60;;;0.60;;
6551;SDS011;3309;48.708;9.290;2022-07-23T14:48:16;0.50;;;0.50;;
6551;SDS011;3309;48.708;9.290;2022-07-23T14:50:41;0.60;;;0.60;;
6551;SDS011;3309;48.708;9.290;2022-07-23T14:53:07;0.50;;;0.50;;
6551;SDS011;3309;48.708;9.290;2022-07-23T14:55:33;0.70;;;0.70;;
6551;SDS011;3309;48.708;9.290;2022-07-23T14:57:59;0.50;;;0.50;;
6551;SDS011;3309;48.708;9.290;2022-07-23T15:00:25;0.65;;;0.65;;
6551;SDS011;3309;48.708;9.290;2022-07-23T15:02:51;0.40;;;0.40;;
6551;SDS011;3309;48.708;9.290;2022-07-23T15:05:17;0.30;;;0.30;;
6551;SDS011;3309;48.708;9.290;2022-07-23T15:07:43;0.40;;;0.40;;
6551;SDS011;3309;48.708;9.290;2022-07-23T15:10:08;0.65;;;0.65;;
6551;SDS011;3309;48.708;9.290;2022-07-23T15:12:34;0.60;;;0.60;;
6551;SDS011;3309;48.708;9.290;2022-07-23T15:14:59;0.45;;;0.45;;
6551;SDS011;3309;48.708;9.290;2022-07-23T15:17:25;0.50;;;0.50;;
6551;SDS011;3309;48.708;9.290;2022-07-23T15:19:51;0.60;;;0.60;;
6551;SDS011;3309;48.708;9.290;2022-07-23T15:22:16;0.53;;;0.53;;
6551;SDS011;3309;48.708;9.290;2022-07-23T15:24:42;0.50;;;0.50;;
6551;SDS011;3309;48.708;9.290;2022-07-23T15:27:08;0.60;;;0.60;;
6551;SDS011;3309;48.708;9.290;2022-07-23T15:29:34;0.57;;;0.57;;
6551;SDS011;3309;48.708;9.290;2022-07-23T15:32:00;0.40;;;0.40;;
6551;SDS011;3309;48.708;9.290;2022-07-23T15:34:26;0.47;;;0.47;;
6551;SDS011;3309;48.708;9.290;2022-07-23T15:36:52;0.60;;;0.60;;
6551;SDS011;3309;48.708;9.290;2022-07-23T15:39:17;0.40;;;0.40;;
6551;SDS011;3309;48.708;9.290;2022-07-23T15:41:43;0.40;;;0.40;;
6551;SDS011;3309;48.708;9.290;2022-07-23T15:44:09;0.47;;;0.47;;
6551;SDS011;3309;48.708;9.290;2022-07-23T15:46:34;0.40;;;0.40;;
6551;SDS011;3309;48.708;9.290;2022-07-23T15:49:00;0.40;;;0.40;;
6551;SDS011;3309;48.708;9.290;2022-07-23T15:51:25;0.50;;;0.50;;
6551;SDS011;3309;48.708;9.290;2022-07-23T15:53:51;0.50;;;0.50;;
6551;SDS011;3309;48.708;9.290;2022-07-23T15:56:16;0.37;;;0.37;;
6551;SDS011;3309;48.708;9.290;2022-07-23T15:58:42;0.50;;;0.50;;
6551;SDS011;3309;48.708;9.290;2022-07-23T16:01:08;0.50;;;0.50;;
6551;SDS011;3309;48.708;9.290;2022-07-23T16:03:34;0.50;;;0.50;;